sensor_id;sensor_type;location;lat;lon;timestamp;pressure;altitude;pressure_sealevel;temperature;humidity
54407;BME280;40313;50.308;30.374;2023-03-11T00:00:42;98047.81;;;1.98;100.00
54407;BME280;40313;50.308;30.374;2023-03-11T00:03:11;98045.25;;;1.98;100.00
54407;BME280;40313;50.308;30.374;2023-03-11T00:05:40;98035.03;;;1.96;100.00
54407;BME280;40313;50.308;30.374;2023-03-11T00:08:11;98037.59;;;1.96;100.00
54407;BME280;40313;50.308;30.374;2023-03-11T00:10:40;98028.13;;;1.97;100.00
54407;BME280;40313;50.308;30.374;2023-03-11T00:13:08;98023.00;;;1.97;100.00
54407;BME280;40313;50.308;30.374;2023-03-11T00:15:36;98029.00;;;1.97;100.00
54407;BME280;40313;50.308;30.374;2023-03-11T00:18:04;98021.31;;;1.96;100.00
54407;BME280;40313;50.308;30.374;2023-03-11T00:20:32;98026.41;;;1.97;100.00
54407;BME280;40313;50.308;30.374;2023-03-11T00:23:00;98019.53;;;1.98;100.00
54407;BME280;40313;50.308;30.374;2023-03-11T00:25:29;98021.31;;;1.96;100.00
54407;BME280;40313;50.308;30.374;2023-03-11T00:27:56;98019.75;;;1.93;100.00
54407;BME280;40313;50.308;30.374;2023-03-11T00:30:24;98015.44;;;1.94;100.00
54407;BME280;40313;50.308;30.374;2023-03-11T00:32:53;98005.16;;;1.94;100.00
54407;BME280;40313;50.308;30.374;2023-03-11T00:35:22;98004.25;;;1.95;100.00
54407;BME280;40313;50.308;30.374;2023-03-11T00:37:52;98006.75;;;1.96;100.00
54407;BME280;40313;50.308;30.374;2023-03-11T00:40:20;97998.81;;;2.01;100.00
54407;BME280;40313;50.308;30.374;2023-03-11T00:42:48;97997.91;;;2.02;100.00
54407;BME280;40313;50.308;30.374;2023-03-11T00:45:15;97996.97;;;2.03;100.00
54407;BME280;40313;50.308;30.374;2023-03-11T00:47:42;97985.78;;;2.04;100.00
54407;BME280;40313;50.308;30.374;2023-03-11T00:50:13;97976.47;;;2.01;100.00
54407;BME280;40313;50.308;30.374;2023-03-11T00:52:42;97978.38;;;1.98;100.00
54407;BME280;40313;50.308;30.374;2023-03-11T00:55:09;97975.88;;;1.96;100.00
54407;BME280;40313;50.308;30.374;2023-03-11T00:57:37;97970.97;;;1.92;100.00
54407;BME280;40313;50.308;30.374;2023-03-11T01:00:07;97970.13;;;1.91;100.00
54407;BME280;40313;50.308;30.374;2023-03-11T01:02:36;97964.31;;;1.87;100.00
54407;BME280;40313;50.308;30.374;2023-03-11T01:05:03;97963.59;;;1.84;100.00
54407;BME280;40313;50.308;30.374;2023-03-11T01:07:30;97954.22;;;1.83;100.00
54407;BME280;40313;50.308;30.374;2023-03-11T01:09:57;97952.72;;;1.79;100.00
54407;BME280;40313;50.308;30.374;2023-03-11T01:12:24;97948.41;;;1.79;100.00
54407;BME280;40313;50.308;30.374;2023-03-11T01:14:51;97942.50;;;1.77;100.00
54407;BME280;40313;50.308;30.374;2023-03-11T01:17:19;97941.75;;;1.75;100.00
54407;BME280;40313;50.308;30.374;2023-03-11T01:19:46;97931.59;;;1.72;100.00
54407;BME280;40313;50.308;30.374;2023-03-11T01:22:13;97942.94;;;1.68;100.00
54407;BME280;40313;50.308;30.374;2023-03-11T01:24:39;97938.84;;;1.64;100.00
54407;BME280;40313;50.308;30.374;2023-03-11T01:27:06;97938.69;;;1.67;100.00
54407;BME280;40313;50.308;30.374;2023-03-11T01:29:32;97932.66;;;1.68;100.00
54407;BME280;40313;50.308;30.374;2023-03-11T01:31:59;97935.16;;;1.69;100.00
54407;BME280;40313;50.308;30.374;2023-03-11T01:34:27;97929.19;;;1.69;100.00
54407;BME280;40313;50.308;30.374;2023-03-11T01:36:53;97932.81;;;1.65;100.00
54407;BME280;40313;50.308;30.374;2023-03-11T01:39:20;97924.25;;;1.64;100.00
54407;BME280;40313;50.308;30.374;2023-03-11T01:41:46;97920.84;;;1.64;100.00
54407;BME280;40313;50.308;30.374;2023-03-11T01:44:13;97918.34;;;1.62;100.00
54407;BME280;40313;50.308;30.374;2023-03-11T01:49:40;97912.47;;;1.60;100.00
54407;BME280;40313;50.308;30.374;2023-03-11T01:52:08;97918.44;;;1.61;100.00
54407;BME280;40313;50.308;30.374;2023-03-11T01:54:36;97915.88;;;1.61;100.00
54407;BME280;40313;50.308;30.374;2023-03-11T01:57:05;97911.63;;;1.60;100.00
54407;BME280;40313;50.308;30.374;2023-03-11T01:59:37;97911.69;;;1.58;100.00
54407;BME280;40313;50.308;30.374;2023-03-11T02:02:09;97903.91;;;1.60;100.00
54407;BME280;40313;50.308;30.374;2023-03-11T02:04:37;97905.44;;;1.64;100.00
54407;BME280;40313;50.308;30.374;2023-03-11T02:07:08;97916.09;;;1.73;100.00
54407;BME280;40313;50.308;30.374;2023-03-11T02:09:36;97907.44;;;1.76;100.00
54407;BME280;40313;50.308;30.374;2023-03-11T02:12:03;97899.56;;;1.79;100.00
54407;BME280;40313;50.308;30.374;2023-03-11T02:14:31;97897.81;;;1.80;100.00
54407;BME280;40313;50.308;30.374;2023-03-11T02:16:58;97899.41;;;1.82;100.00
54407;BME280;40313;50.308;30.374;2023-03-11T02:19:30;97891.75;;;1.81;100.00
54407;BME280;40313;50.308;30.374;2023-03-11T02:22:03;97901.75;;;1.87;100.00
54407;BME280;40313;50.308;30.374;2023-03-11T02:24:38;97890.31;;;1.93;100.00
54407;BME280;40313;50.308;30.374;2023-03-11T02:27:09;97893.34;;;2.01;100.00
54407;BME280;40313;50.308;30.374;2023-03-11T02:29:38;97888.81;;;2.06;100.00
54407;BME280;40313;50.308;30.374;2023-03-11T02:32:07;97883.44;;;2.11;100.00
54407;BME280;40313;50.308;30.374;2023-03-11T02:34:36;97883.13;;;2.17;100.00
54407;BME280;40313;50.308;30.374;2023-03-11T02:37:05;97880.19;;;2.24;100.00
54407;BME280;40313;50.308;30.374;2023-03-11T02:39:34;97881.53;;;2.32;100.00
54407;BME280;40313;50.308;30.374;2023-03-11T02:42:04;97880.47;;;2.36;100.00
54407;BME280;40313;50.308;30.374;2023-03-11T02:44:34;97869.94;;;2.40;100.00
54407;BME280;40313;50.308;30.374;2023-03-11T02:47:01;97869.59;;;2.47;100.00
54407;BME280;40313;50.308;30.374;2023-03-11T02:49:28;97864.13;;;2.53;100.00
54407;BME280;40313;50.308;30.374;2023-03-11T02:51:55;97858.84;;;2.56;100.00
54407;BME280;40313;50.308;30.374;2023-03-11T02:54:21;97850.88;;;2.61;100.00
54407;BME280;40313;50.308;30.374;2023-03-11T02:56:48;97844.81;;;2.62;100.00
54407;BME280;40313;50.308;30.374;2023-03-11T02:59:14;97854.19;;;2.63;100.00
54407;BME280;40313;50.308;30.374;2023-03-11T03:01:43;97844.06;;;2.59;100.00
54407;BME280;40313;50.308;30.374;2023-03-11T03:04:10;97842.47;;;2.57;100.00
54407;BME280;40313;50.308;30.374;2023-03-11T03:06:36;97839.91;;;2.57;100.00
54407;BME280;40313;50.308;30.374;2023-03-11T03:09:03;97837.56;;;2.52;100.00
54407;BME280;40313;50.308;30.374;2023-03-11T03:11:30;97838.72;;;2.47;100.00
54407;BME280;40313;50.308;30.374;2023-03-11T03:13:56;97830.34;;;2.43;100.00
54407;BME280;40313;50.308;30.374;2023-03-11T03:16:23;97834.00;;;2.39;100.00
54407;BME280;40313;50.308;30.374;2023-03-11T03:18:51;97827.16;;;2.38;100.00
54407;BME280;40313;50.308;30.374;2023-03-11T03:21:17;97832.41;;;2.36;100.00
54407;BME280;40313;50.308;30.374;2023-03-11T03:23:44;97830.81;;;2.34;100.00
54407;BME280;40313;50.308;30.374;2023-03-11T03:26:12;97828.41;;;2.31;100.00
54407;BME280;40313;50.308;30.374;2023-03-11T03:28:39;97821.00;;;2.24;100.00
54407;BME280;40313;50.308;30.374;2023-03-11T03:31:07;97817.09;;;2.17;100.00
54407;BME280;40313;50.308;30.374;2023-03-11T03:33:34;97811.25;;;2.14;100.00
54407;BME280;40313;50.308;30.374;2023-03-11T03:36:06;97804.53;;;2.11;100.00
54407;BME280;40313;50.308;30.374;2023-03-11T03:38:33;97807.19;;;2.10;100.00
54407;BME280;40313;50.308;30.374;2023-03-11T03:40:59;97801.31;;;2.07;100.00
54407;BME280;40313;50.308;30.374;2023-03-11T03:43:26;97802.44;;;2.02;100.00
54407;BME280;40313;50.308;30.374;2023-03-11T03:45:56;97797.47;;;1.99;100.00
54407;BME280;40313;50.308;30.374;2023-03-11T03:48:22;97801.09;;;1.95;100.00
54407;BME280;40313;50.308;30.374;2023-03-11T03:50:49;97795.19;;;1.93;100.00
54407;BME280;40313;50.308;30.374;2023-03-11T03:53:17;97792.63;;;1.93;100.00
54407;BME280;40313;50.308;30.374;2023-03-11T03:55:44;97790.88;;;1.93;100.00
54407;BME280;40313;50.308;30.374;2023-03-11T03:58:11;97784.72;;;1.96;100.00
54407;BME280;40313;50.308;30.374;2023-03-11T04:00:37;97776.38;;;1.92;100.00
54407;BME280;40313;50.308;30.374;2023-03-11T04:03:04;97767.81;;;1.92;100.00
54407;BME280;40313;50.308;30.374;2023-03-11T04:05:30;97772.28;;;1.88;100.00
54407;BME280;40313;50.308;30.374;2023-03-11T04:07:57;97771.63;;;1.84;100.00
54407;BME280;40313;50.308;30.374;2023-03-11T04:10:26;97772.69;;;1.80;100.00
54407;BME280;40313;50.308;30.374;2023-03-11T04:12:53;97762.53;;;1.77;100.00
54407;BME280;40313;50.308;30.374;2023-03-11T04:15:19;97756.66;;;1.75;100.00
54407;BME280;40313;50.308;30.374;2023-03-11T04:17:46;97751.75;;;1.70;100.00
54407;BME280;40313;50.308;30.374;2023-03-11T04:20:12;97745.09;;;1.66;100.00
54407;BME280;40313;50.308;30.374;2023-03-11T04:22:39;97748.00;;;1.60;100.00
54407;BME280;40313;50.308;30.374;2023-03-11T04:25:06;97744.00;;;1.54;100.00
54407;BME280;40313;50.308;30.374;2023-03-11T04:27:34;97740.72;;;1.51;100.00
54407;BME280;40313;50.308;30.374;2023-03-11T04:30:03;97741.69;;;1.48;100.00
54407;BME280;40313;50.308;30.374;2023-03-11T04:32:30;97736.72;;;1.45;100.00
54407;BME280;40313;50.308;30.374;2023-03-11T04:34:56;97727.50;;;1.41;100.00
54407;BME280;40313;50.308;30.374;2023-03-11T04:37:26;97735.22;;;1.41;100.00
54407;BME280;40313;50.308;30.374;2023-03-11T04:39:53;97724.94;;;1.41;100.00
54407;BME280;40313;50.308;30.374;2023-03-11T04:42:19;97730.94;;;1.42;100.00
54407;BME280;40313;50.308;30.374;2023-03-11T04:44:47;97723.88;;;1.45;100.00
54407;BME280;40313;50.308;30.374;2023-03-11T04:47:14;97722.81;;;1.49;100.00
54407;BME280;40313;50.308;30.374;2023-03-11T04:49:40;97716.53;;;1.55;100.00
54407;BME280;40313;50.308;30.374;2023-03-11T04:52:07;97707.53;;;1.64;100.00
54407;BME280;40313;50.308;30.374;2023-03-11T04:54:34;97691.03;;;1.68;100.00
54407;BME280;40313;50.308;30.374;2023-03-11T04:57:00;97698.69;;;1.85;100.00
54407;BME280;40313;50.308;30.374;2023-03-11T04:59:27;97691.25;;;1.97;100.00
54407;BME280;40313;50.308;30.374;2023-03-11T05:01:55;97687.06;;;2.12;100.00
54407;BME280;40313;50.308;30.374;2023-03-11T05:04:21;97681.16;;;2.25;100.00
54407;BME280;40313;50.308;30.374;2023-03-11T05:06:48;97682.00;;;2.42;100.00
54407;BME280;40313;50.308;30.374;2023-03-11T05:09:16;97670.94;;;2.56;100.00
54407;BME280;40313;50.308;30.374;2023-03-11T05:11:43;97665.84;;;2.70;100.00
54407;BME280;40313;50.308;30.374;2023-03-11T05:14:09;97660.00;;;2.83;100.00
54407;BME280;40313;50.308;30.374;2023-03-11T05:16:36;97651.38;;;2.84;100.00
54407;BME280;40313;50.308;30.374;2023-03-11T05:19:04;97643.38;;;2.88;100.00
54407;BME280;40313;50.308;30.374;2023-03-11T05:21:51;97632.56;;;2.98;100.00
54407;BME280;40313;50.308;30.374;2023-03-11T05:24:17;97638.47;;;3.14;100.00
54407;BME280;40313;50.308;30.374;2023-03-11T05:26:44;97636.56;;;3.32;100.00
54407;BME280;40313;50.308;30.374;2023-03-11T05:29:11;97630.59;;;3.60;100.00
54407;BME280;40313;50.308;30.374;2023-03-11T05:31:37;97628.72;;;3.91;100.00
54407;BME280;40313;50.308;30.374;2023-03-11T05:34:05;97624.81;;;3.98;100.00
54407;BME280;40313;50.308;30.374;2023-03-11T05:36:32;97616.53;;;4.08;100.00
54407;BME280;40313;50.308;30.374;2023-03-11T05:38:58;97622.81;;;4.04;100.00
54407;BME280;40313;50.308;30.374;2023-03-11T05:41:25;97619.50;;;4.02;100.00
54407;BME280;40313;50.308;30.374;2023-03-11T05:43:51;97621.22;;;4.01;100.00
54407;BME280;40313;50.308;30.374;2023-03-11T05:46:18;97622.59;;;4.07;100.00
54407;BME280;40313;50.308;30.374;2023-03-11T05:48:45;97622.06;;;4.16;100.00
54407;BME280;40313;50.308;30.374;2023-03-11T05:51:13;97619.06;;;4.22;100.00
54407;BME280;40313;50.308;30.374;2023-03-11T05:53:41;97613.63;;;4.27;100.00
54407;BME280;40313;50.308;30.374;2023-03-11T05:56:12;97607.53;;;4.28;100.00
54407;BME280;40313;50.308;30.374;2023-03-11T05:58:39;97607.53;;;4.28;100.00
54407;BME280;40313;50.308;30.374;2023-03-11T06:01:07;97595.66;;;4.25;100.00
54407;BME280;40313;50.308;30.374;2023-03-11T06:03:34;97597.50;;;4.23;100.00
54407;BME280;40313;50.308;30.374;2023-03-11T06:06:00;97591.41;;;4.24;100.00
54407;BME280;40313;50.308;30.374;2023-03-11T06:08:28;97594.31;;;4.32;100.00
54407;BME280;40313;50.308;30.374;2023-03-11T06:11:00;97593.09;;;4.38;100.00
54407;BME280;40313;50.308;30.374;2023-03-11T06:13:27;97598.53;;;4.48;100.00
54407;BME280;40313;50.308;30.374;2023-03-11T06:15:53;97594.31;;;4.60;100.00
54407;BME280;40313;50.308;30.374;2023-03-11T06:18:20;97589.91;;;4.75;100.00
54407;BME280;40313;50.308;30.374;2023-03-11T06:20:46;97586.13;;;4.93;100.00
54407;BME280;40313;50.308;30.374;2023-03-11T06:23:13;97585.09;;;5.09;100.00
54407;BME280;40313;50.308;30.374;2023-03-11T06:25:41;97586.94;;;5.19;100.00
54407;BME280;40313;50.308;30.374;2023-03-11T06:28:08;97579.50;;;5.28;100.00
54407;BME280;40313;50.308;30.374;2023-03-11T06:30:35;97584.66;;;5.41;100.00
54407;BME280;40313;50.308;30.374;2023-03-11T06:33:02;97577.81;;;5.52;100.00
54407;BME280;40313;50.308;30.374;2023-03-11T06:35:28;97573.66;;;5.63;100.00
54407;BME280;40313;50.308;30.374;2023-03-11T06:37:55;97571.78;;;5.78;100.00
54407;BME280;40313;50.308;30.374;2023-03-11T06:40:21;97567.16;;;5.94;100.00
54407;BME280;40313;50.308;30.374;2023-03-11T06:42:49;97558.56;;;6.07;100.00
54407;BME280;40313;50.308;30.374;2023-03-11T06:45:16;97549.94;;;6.19;100.00
54407;BME280;40313;50.308;30.374;2023-03-11T06:47:43;97542.31;;;6.29;100.00
54407;BME280;40313;50.308;30.374;2023-03-11T06:50:10;97538.44;;;6.34;100.00
54407;BME280;40313;50.308;30.374;2023-03-11T06:52:36;97533.66;;;6.41;100.00
54407;BME280;40313;50.308;30.374;2023-03-11T06:55:04;97533.53;;;6.43;100.00
54407;BME280;40313;50.308;30.374;2023-03-11T06:57:31;97528.00;;;6.47;100.00
54407;BME280;40313;50.308;30.374;2023-03-11T06:59:59;97516.38;;;6.53;100.00
54407;BME280;40313;50.308;30.374;2023-03-11T07:02:26;97520.41;;;6.57;100.00
54407;BME280;40313;50.308;30.374;2023-03-11T07:04:52;97519.47;;;6.58;100.00
54407;BME280;40313;50.308;30.374;2023-03-11T07:07:19;97518.41;;;6.61;100.00
54407;BME280;40313;50.308;30.374;2023-03-11T07:09:45;97517.56;;;6.60;100.00
54407;BME280;40313;50.308;30.374;2023-03-11T07:12:12;97512.88;;;6.65;100.00
54407;BME280;40313;50.308;30.374;2023-03-11T07:14:40;97503.00;;;6.70;100.00
54407;BME280;40313;50.308;30.374;2023-03-11T07:17:08;97503.56;;;6.63;100.00
54407;BME280;40313;50.308;30.374;2023-03-11T07:19:35;97505.13;;;6.65;100.00
54407;BME280;40313;50.308;30.374;2023-03-11T07:22:01;97496.66;;;6.63;100.00
54407;BME280;40313;50.308;30.374;2023-03-11T07:24:28;97487.44;;;6.59;100.00
54407;BME280;40313;50.308;30.374;2023-03-11T07:26:54;97498.84;;;6.56;100.00
54407;BME280;40313;50.308;30.374;2023-03-11T07:29:21;97489.53;;;6.54;100.00
54407;BME280;40313;50.308;30.374;2023-03-11T07:31:48;97482.63;;;6.54;100.00
54407;BME280;40313;50.308;30.374;2023-03-11T07:34:15;97473.06;;;6.55;100.00
54407;BME280;40313;50.308;30.374;2023-03-11T07:36:42;97473.06;;;6.55;100.00
54407;BME280;40313;50.308;30.374;2023-03-11T07:39:12;97459.19;;;6.56;100.00
54407;BME280;40313;50.308;30.374;2023-03-11T07:41:39;97454.97;;;6.66;100.00
54407;BME280;40313;50.308;30.374;2023-03-11T07:44:06;97450.72;;;6.77;100.00
54407;BME280;40313;50.308;30.374;2023-03-11T07:46:32;97441.06;;;6.90;100.00
54407;BME280;40313;50.308;30.374;2023-03-11T07:49:00;97438.22;;;7.04;100.00
54407;BME280;40313;50.308;30.374;2023-03-11T07:51:31;97441.97;;;7.23;100.00
54407;BME280;40313;50.308;30.374;2023-03-11T07:53:59;97437.94;;;7.41;100.00
54407;BME280;40313;50.308;30.374;2023-03-11T07:56:27;97431.91;;;7.52;100.00
54407;BME280;40313;50.308;30.374;2023-03-11T07:58:54;97433.22;;;7.47;100.00
54407;BME280;40313;50.308;30.374;2023-03-11T08:01:22;97425.69;;;7.43;100.00
54407;BME280;40313;50.308;30.374;2023-03-11T08:03:49;97429.00;;;7.34;100.00
54407;BME280;40313;50.308;30.374;2023-03-11T08:06:22;97414.44;;;7.22;100.00
54407;BME280;40313;50.308;30.374;2023-03-11T08:08:50;97406.91;;;7.07;100.00
54407;BME280;40313;50.308;30.374;2023-03-11T08:11:17;97401.00;;;6.83;100.00
54407;BME280;40313;50.308;30.374;2023-03-11T08:13:44;97388.28;;;6.57;100.00
54407;BME280;40313;50.308;30.374;2023-03-11T08:16:12;97394.41;;;6.33;100.00
54407;BME280;40313;50.308;30.374;2023-03-11T08:18:39;97397.09;;;6.32;100.00
54407;BME280;40313;50.308;30.374;2023-03-11T08:21:07;97388.28;;;6.46;100.00
54407;BME280;40313;50.308;30.374;2023-03-11T08:23:35;97395.72;;;6.62;100.00
54407;BME280;40313;50.308;30.374;2023-03-11T08:26:04;97395.63;;;6.74;100.00
54407;BME280;40313;50.308;30.374;2023-03-11T08:28:30;97391.47;;;6.49;100.00
54407;BME280;40313;50.308;30.374;2023-03-11T08:30:57;97385.47;;;6.37;100.00
54407;BME280;40313;50.308;30.374;2023-03-11T08:33:23;97389.66;;;6.27;100.00
54407;BME280;40313;50.308;30.374;2023-03-11T08:35:49;97381.97;;;6.14;100.00
54407;BME280;40313;50.308;30.374;2023-03-11T08:38:16;97382.91;;;6.02;100.00
54407;BME280;40313;50.308;30.374;2023-03-11T08:40:42;97382.00;;;5.79;100.00
54407;BME280;40313;50.308;30.374;2023-03-11T08:43:12;97394.44;;;5.74;100.00
54407;BME280;40313;50.308;30.374;2023-03-11T08:45:38;97387.00;;;5.69;100.00
54407;BME280;40313;50.308;30.374;2023-03-11T08:48:05;97380.63;;;5.62;100.00
54407;BME280;40313;50.308;30.374;2023-03-11T08:50:31;97376.84;;;5.54;100.00
54407;BME280;40313;50.308;30.374;2023-03-11T08:52:58;97384.31;;;5.46;100.00
54407;BME280;40313;50.308;30.374;2023-03-11T08:55:27;97384.66;;;5.42;100.00
54407;BME280;40313;50.308;30.374;2023-03-11T08:57:54;97371.38;;;5.22;100.00
54407;BME280;40313;50.308;30.374;2023-03-11T09:00:22;97375.63;;;5.23;100.00
54407;BME280;40313;50.308;30.374;2023-03-11T09:02:48;97370.22;;;5.26;100.00
54407;BME280;40313;50.308;30.374;2023-03-11T09:05:15;97359.78;;;5.28;100.00
54407;BME280;40313;50.308;30.374;2023-03-11T09:07:41;97362.13;;;5.31;100.00
54407;BME280;40313;50.308;30.374;2023-03-11T09:10:09;97358.84;;;5.29;100.00
54407;BME280;40313;50.308;30.374;2023-03-11T09:12:36;97356.38;;;5.27;100.00
54407;BME280;40313;50.308;30.374;2023-03-11T09:15:03;97351.03;;;5.17;100.00
54407;BME280;40313;50.308;30.374;2023-03-11T09:17:31;97337.50;;;5.14;100.00
54407;BME280;40313;50.308;30.374;2023-03-11T09:19:58;97348.09;;;4.98;100.00
54407;BME280;40313;50.308;30.374;2023-03-11T09:22:24;97345.44;;;4.87;100.00
54407;BME280;40313;50.308;30.374;2023-03-11T09:24:51;97337.78;;;4.85;100.00
54407;BME280;40313;50.308;30.374;2023-03-11T09:27:17;97332.72;;;4.83;100.00
54407;BME280;40313;50.308;30.374;2023-03-11T09:29:43;97331.22;;;4.68;100.00
54407;BME280;40313;50.308;30.374;2023-03-11T09:32:11;97321.31;;;4.62;100.00
54407;BME280;40313;50.308;30.374;2023-03-11T09:34:40;97311.41;;;4.56;100.00
54407;BME280;40313;50.308;30.374;2023-03-11T09:37:07;97308.66;;;4.46;100.00
54407;BME280;40313;50.308;30.374;2023-03-11T09:39:33;97294.69;;;4.48;100.00
54407;BME280;40313;50.308;30.374;2023-03-11T09:42:02;97303.19;;;4.38;100.00
54407;BME280;40313;50.308;30.374;2023-03-11T09:44:39;97293.56;;;4.40;100.00
54407;BME280;40313;50.308;30.374;2023-03-11T09:47:22;97288.41;;;4.40;100.00
54407;BME280;40313;50.308;30.374;2023-03-11T09:53:15;97262.50;;;4.28;100.00
54407;BME280;40313;50.308;30.374;2023-03-11T09:55:46;97288.09;;;4.31;100.00
54407;BME280;40313;50.308;30.374;2023-03-11T09:58:20;97285.47;;;4.20;100.00
54407;BME280;40313;50.308;30.374;2023-03-11T10:00:48;97278.31;;;4.11;100.00
54407;BME280;40313;50.308;30.374;2023-03-11T10:03:28;97283.69;;;3.95;100.00
54407;BME280;40313;50.308;30.374;2023-03-11T10:06:03;97277.41;;;3.99;100.00
54407;BME280;40313;50.308;30.374;2023-03-11T10:08:38;97270.50;;;3.87;100.00
54407;BME280;40313;50.308;30.374;2023-03-11T10:11:16;97271.84;;;3.92;100.00
54407;BME280;40313;50.308;30.374;2023-03-11T10:13:50;97277.63;;;3.96;100.00
54407;BME280;40313;50.308;30.374;2023-03-11T10:16:24;97259.03;;;4.04;100.00
54407;BME280;40313;50.308;30.374;2023-03-11T10:18:59;97262.25;;;4.07;100.00
54407;BME280;40313;50.308;30.374;2023-03-11T10:21:34;97256.97;;;4.09;100.00
54407;BME280;40313;50.308;30.374;2023-03-11T10:24:28;97266.16;;;4.26;100.00
54407;BME280;40313;50.308;30.374;2023-03-11T10:27:00;97255.38;;;4.32;100.00
54407;BME280;40313;50.308;30.374;2023-03-11T10:29:29;97250.81;;;4.36;100.00
54407;BME280;40313;50.308;30.374;2023-03-11T10:32:04;97247.53;;;4.33;100.00
54407;BME280;40313;50.308;30.374;2023-03-11T10:34:33;97242.38;;;4.33;100.00
54407;BME280;40313;50.308;30.374;2023-03-11T10:37:10;97234.53;;;4.35;100.00
54407;BME280;40313;50.308;30.374;2023-03-11T10:39:38;97226.66;;;4.37;100.00
54407;BME280;40313;50.308;30.374;2023-03-11T10:42:10;97229.88;;;4.40;100.00
54407;BME280;40313;50.308;30.374;2023-03-11T10:44:40;97218.28;;;4.46;100.00
54407;BME280;40313;50.308;30.374;2023-03-11T10:47:12;97211.97;;;4.50;100.00
54407;BME280;40313;50.308;30.374;2023-03-11T10:49:41;97213.28;;;4.56;100.00
54407;BME280;40313;50.308;30.374;2023-03-11T10:52:09;97201.00;;;4.59;100.00
54407;BME280;40313;50.308;30.374;2023-03-11T10:54:38;97191.25;;;4.63;100.00
54407;BME280;40313;50.308;30.374;2023-03-11T10:57:20;97182.16;;;4.70;100.00
54407;BME280;40313;50.308;30.374;2023-03-11T10:59:48;97177.47;;;4.75;100.00
54407;BME280;40313;50.308;30.374;2023-03-11T11:02:25;97181.47;;;4.79;100.00
54407;BME280;40313;50.308;30.374;2023-03-11T11:05:13;97172.06;;;4.78;100.00
54407;BME280;40313;50.308;30.374;2023-03-11T11:07:48;97168.69;;;4.78;100.00
54407;BME280;40313;50.308;30.374;2023-03-11T11:10:18;97164.09;;;4.81;100.00
54407;BME280;40313;50.308;30.374;2023-03-11T11:12:55;97159.09;;;4.91;100.00
54407;BME280;40313;50.308;30.374;2023-03-11T11:15:25;97145.97;;;5.06;100.00
54407;BME280;40313;50.308;30.374;2023-03-11T11:17:53;97152.13;;;5.16;100.00
54407;BME280;40313;50.308;30.374;2023-03-11T11:20:23;97145.91;;;5.18;100.00
54407;BME280;40313;50.308;30.374;2023-03-11T11:22:53;97144.28;;;5.17;100.00
54407;BME280;40313;50.308;30.374;2023-03-11T11:25:29;97135.34;;;5.22;100.00
54407;BME280;40313;50.308;30.374;2023-03-11T11:27:59;97136.75;;;5.26;100.00
54407;BME280;40313;50.308;30.374;2023-03-11T11:30:27;97128.66;;;5.30;100.00
54407;BME280;40313;50.308;30.374;2023-03-11T11:32:54;97126.91;;;5.31;100.00
54407;BME280;40313;50.308;30.374;2023-03-11T11:35:22;97119.13;;;5.31;100.00
54407;BME280;40313;50.308;30.374;2023-03-11T11:37:53;97119.25;;;5.29;100.00
54407;BME280;40313;50.308;30.374;2023-03-11T11:40:24;97111.50;;;5.29;100.00
54407;BME280;40313;50.308;30.374;2023-03-11T11:42:54;97115.75;;;5.30;100.00
54407;BME280;40313;50.308;30.374;2023-03-11T11:45:26;97109.72;;;5.30;100.00
54407;BME280;40313;50.308;30.374;2023-03-11T11:47:57;97107.25;;;5.28;100.00
54407;BME280;40313;50.308;30.374;2023-03-11T11:50:27;97110.69;;;5.29;100.00
54407;BME280;40313;50.308;30.374;2023-03-11T11:53:02;97106.44;;;5.28;100.00
54407;BME280;40313;50.308;30.374;2023-03-11T11:55:31;97107.03;;;5.31;100.00
54407;BME280;40313;50.308;30.374;2023-03-11T11:57:59;97103.38;;;5.34;100.00
54407;BME280;40313;50.308;30.374;2023-03-11T12:00:33;97099.16;;;5.33;100.00
54407;BME280;40313;50.308;30.374;2023-03-11T12:03:20;97095.06;;;5.30;100.00
54407;BME280;40313;50.308;30.374;2023-03-11T12:05:54;97096.81;;;5.30;100.00
54407;BME280;40313;50.308;30.374;2023-03-11T12:08:31;97103.50;;;5.32;100.00
54407;BME280;40313;50.308;30.374;2023-03-11T12:11:04;97095.75;;;5.32;100.00
54407;BME280;40313;50.308;30.374;2023-03-11T12:13:48;97092.00;;;5.36;100.00
54407;BME280;40313;50.308;30.374;2023-03-11T12:16:24;97088.50;;;5.38;100.00
54407;BME280;40313;50.308;30.374;2023-03-11T12:18:55;97086.59;;;5.40;100.00
54407;BME280;40313;50.308;30.374;2023-03-11T12:21:38;97090.72;;;5.42;100.00
54407;BME280;40313;50.308;30.374;2023-03-11T12:24:27;97081.78;;;5.46;100.00
54407;BME280;40313;50.308;30.374;2023-03-11T12:27:00;97080.72;;;5.49;100.00
54407;BME280;40313;50.308;30.374;2023-03-11T12:29:30;97066.41;;;5.45;100.00
54407;BME280;40313;50.308;30.374;2023-03-11T12:32:00;97076.84;;;5.54;100.00
54407;BME280;40313;50.308;30.374;2023-03-11T12:34:28;97076.50;;;5.59;100.00
54407;BME280;40313;50.308;30.374;2023-03-11T12:36:59;97077.78;;;5.65;100.00
54407;BME280;40313;50.308;30.374;2023-03-11T12:39:30;97079.06;;;5.70;100.00
54407;BME280;40313;50.308;30.374;2023-03-11T12:42:16;97074.22;;;5.77;100.00
54407;BME280;40313;50.308;30.374;2023-03-11T12:44:44;97072.72;;;5.86;100.00
54407;BME280;40313;50.308;30.374;2023-03-11T12:47:28;97073.41;;;5.99;100.00
54407;BME280;40313;50.308;30.374;2023-03-11T12:53:15;97065.22;;;6.27;100.00
54407;BME280;40313;50.308;30.374;2023-03-11T12:55:55;97058.72;;;6.32;100.00
54407;BME280;40313;50.308;30.374;2023-03-11T12:58:53;97056.25;;;6.31;100.00
54407;BME280;40313;50.308;30.374;2023-03-11T13:01:44;97045.09;;;6.30;100.00
54407;BME280;40313;50.308;30.374;2023-03-11T13:04:30;97050.25;;;6.30;100.00
54407;BME280;40313;50.308;30.374;2023-03-11T13:10:11;97044.13;;;6.31;100.00
54407;BME280;40313;50.308;30.374;2023-03-11T13:12:42;97045.78;;;6.32;100.00